Time;durP1;ratioP1;P1;durP2;ratioP2;P2;SDS_P1;SDS_P2;PMS_P1;PMS_P2;Temp;Humidity;BMP_temperature;BMP_pressure;BME280_temperature;BME280_humidity;BME280_pressure;Samples;Min_cycle;Max_cycle;Signal;HPM_P1;HPM_P2
2024/01/26 00:01:37;;;;;;;112.68;44.92;;;8.70;99.90;;;;;;5025813;28;20286;-67
2024/01/26 00:04:03;;;;;;;104.47;44.07;;;8.70;99.90;;;;;;5025908;28;20124;-67
2024/01/26 00:06:29;;;;;;;107.80;45.75;;;8.80;99.90;;;;;;5026053;28;20746;-67
2024/01/26 00:08:54;;;;;;;100.03;44.35;;;8.80;99.90;;;;;;5007565;28;20037;-67
2024/01/26 00:11:20;;;;;;;98.65;43.65;;;8.80;99.90;;;;;;5025604;28;20418;-66
2024/01/26 00:13:46;;;;;;;98.25;41.38;;;8.80;99.90;;;;;;5006579;28;20080;-68
2024/01/26 00:16:12;;;;;;;97.32;42.45;;;8.80;99.90;;;;;;5025865;28;20413;-67
2024/01/26 00:18:40;;;;;;;93.15;39.67;;;8.80;99.90;;;;;;5024063;28;20037;-66
2024/01/26 00:21:06;;;;;;;98.78;43.33;;;8.80;99.90;;;;;;5025748;28;20061;-66
2024/01/26 00:23:32;;;;;;;101.80;45.15;;;8.90;99.90;;;;;;5025673;28;20116;-68
2024/01/26 00:25:57;;;;;;;97.63;43.33;;;8.90;99.90;;;;;;5007969;28;20452;-68
2024/01/26 00:28:23;;;;;;;94.20;42.33;;;8.90;99.90;;;;;;5007342;28;20102;-67
2024/01/26 00:30:49;;;;;;;97.78;43.17;;;8.90;99.90;;;;;;5028747;28;20034;-66
2024/01/26 00:33:14;;;;;;;89.43;40.33;;;8.90;99.90;;;;;;5023704;28;20310;-65
2024/01/26 00:35:40;;;;;;;94.43;42.90;;;8.90;99.90;;;;;;5027137;28;20048;-66
2024/01/26 00:38:05;;;;;;;86.70;41.13;;;8.90;99.90;;;;;;5010629;28;20034;-66
2024/01/26 00:40:31;;;;;;;89.20;43.03;;;9.00;99.90;;;;;;5029114;28;21100;-66
2024/01/26 00:42:56;;;;;;;94.50;44.03;;;8.90;99.90;;;;;;5029418;28;20124;-67
2024/01/26 00:45:22;;;;;;;90.40;41.67;;;9.00;99.90;;;;;;5030327;28;20047;-67
2024/01/26 00:47:48;;;;;;;93.20;43.63;;;9.00;99.90;;;;;;5030057;28;20069;-67
2024/01/26 00:50:13;;;;;;;95.97;45.15;;;9.00;99.90;;;;;;5012457;28;20050;-66
2024/01/26 00:52:39;;;;;;;84.17;40.60;;;9.00;99.90;;;;;;5029636;28;20037;-66
2024/01/26 00:55:04;;;;;;;93.67;41.83;;;9.00;99.90;;;;;;5029557;28;20276;-66
2024/01/26 00:57:30;;;;;;;91.50;43.03;;;9.00;99.90;;;;;;5029756;28;20037;-67
2024/01/26 00:59:56;;;;;;;88.50;41.27;;;9.00;99.90;;;;;;5031116;28;20118;-68
2024/01/26 01:02:22;;;;;;;88.53;43.90;;;9.00;99.90;;;;;;5029254;28;20164;-67
2024/01/26 01:04:47;;;;;;;90.78;43.90;;;9.10;99.90;;;;;;4994963;28;20461;-66
2024/01/26 01:07:13;;;;;;;81.73;40.67;;;9.10;99.90;;;;;;5029443;28;20030;-67
2024/01/26 01:09:40;;;;;;;94.53;43.93;;;9.10;99.90;;;;;;5029399;28;20037;-67
2024/01/26 01:12:07;;;;;;;87.57;42.58;;;9.10;99.90;;;;;;5028865;28;20088;-66
2024/01/26 01:14:35;;;;;;;78.88;40.25;;;9.10;99.90;;;;;;5028918;28;20053;-67
2024/01/26 01:17:01;;;;;;;84.07;41.45;;;9.10;99.90;;;;;;5011789;28;20038;-67
2024/01/26 01:19:27;;;;;;;82.27;41.10;;;9.10;99.90;;;;;;5011871;28;20552;-67
2024/01/26 01:21:53;;;;;;;81.65;41.15;;;9.10;99.90;;;;;;5011036;28;20271;-67
2024/01/26 01:24:19;;;;;;;77.77;38.67;;;9.10;99.90;;;;;;5029030;28;20106;-67
2024/01/26 01:26:44;;;;;;;79.47;40.40;;;9.20;99.90;;;;;;5027863;28;20508;-67
2024/01/26 01:29:10;;;;;;;76.10;40.27;;;9.20;99.90;;;;;;5029571;28;20035;-67
2024/01/26 01:31:35;;;;;;;72.93;38.40;;;9.20;99.90;;;;;;5029219;28;20703;-66
2024/01/26 01:34:01;;;;;;;76.60;38.80;;;9.20;99.90;;;;;;5029853;28;20709;-66
2024/01/26 01:36:26;;;;;;;77.00;37.03;;;9.20;99.90;;;;;;5031317;28;20037;-66
2024/01/26 01:38:52;;;;;;;73.33;37.47;;;9.20;99.90;;;;;;5013053;28;20064;-66
2024/01/26 01:41:18;;;;;;;77.10;37.27;;;9.20;99.90;;;;;;5029081;28;20284;-66
2024/01/26 01:43:44;;;;;;;73.03;37.60;;;9.30;99.90;;;;;;5028590;28;20081;-66
2024/01/26 01:46:09;;;;;;;72.05;38.80;;;9.20;99.90;;;;;;5010913;28;20849;-66
2024/01/26 01:48:35;;;;;;;70.67;37.77;;;9.30;99.90;;;;;;5010927;28;20045;-66
2024/01/26 01:51:01;;;;;;;75.03;38.97;;;9.20;99.90;;;;;;5011135;28;20307;-67
2024/01/26 01:53:28;;;;;;;74.55;38.75;;;9.30;99.90;;;;;;5028664;28;20037;-68
2024/01/26 01:55:54;;;;;;;71.05;39.08;;;9.30;99.90;;;;;;5027672;28;20041;-67
2024/01/26 01:58:22;;;;;;;79.75;39.55;;;9.30;99.90;;;;;;5008901;28;20050;-66
2024/01/26 02:00:48;;;;;;;66.00;36.88;;;9.30;99.90;;;;;;5027332;28;20057;-66
2024/01/26 02:03:14;;;;;;;71.20;38.22;;;9.30;99.90;;;;;;5041862;28;20045;-67
2024/01/26 02:05:39;;;;;;;76.43;40.40;;;9.30;99.90;;;;;;5027736;28;20036;-67
2024/01/26 02:08:05;;;;;;;69.50;38.67;;;9.30;99.90;;;;;;5028618;28;20525;-67
2024/01/26 02:10:31;;;;;;;78.93;41.17;;;9.30;99.90;;;;;;5027789;28;20033;-66
2024/01/26 02:12:57;;;;;;;72.38;38.53;;;9.30;99.90;;;;;;5028131;28;20045;-67
2024/01/26 02:15:22;;;;;;;69.00;38.53;;;9.40;99.90;;;;;;5026578;28;20164;-66
2024/01/26 02:17:48;;;;;;;64.40;36.50;;;9.40;99.90;;;;;;5028432;28;20042;-67
2024/01/26 02:20:14;;;;;;;65.60;37.53;;;9.40;99.90;;;;;;5017385;28;20450;-67
2024/01/26 02:22:39;;;;;;;65.53;37.27;;;9.40;99.90;;;;;;5010723;28;20041;-67
2024/01/26 02:25:06;;;;;;;69.67;37.90;;;9.40;99.90;;;;;;5027210;28;20292;-68
2024/01/26 02:27:33;;;;;;;62.53;37.45;;;9.40;99.90;;;;;;5028187;28;20030;-66
2024/01/26 02:29:58;;;;;;;66.32;36.50;;;9.40;99.90;;;;;;5028429;28;20045;-68
2024/01/26 02:32:24;;;;;;;61.87;36.40;;;9.40;99.90;;;;;;5016116;28;20033;-67
2024/01/26 02:34:49;;;;;;;62.03;36.00;;;9.40;99.90;;;;;;5011640;28;20084;-66
2024/01/26 02:37:15;;;;;;;66.17;36.00;;;9.40;99.90;;;;;;5027499;28;20745;-69
2024/01/26 02:39:41;;;;;;;60.37;34.53;;;9.40;99.90;;;;;;5026985;28;20284;-67
2024/01/26 02:42:06;;;;;;;59.27;36.57;;;9.50;99.90;;;;;;5027844;28;20545;-67
2024/01/26 02:44:33;;;;;;;55.53;33.37;;;9.50;99.90;;;;;;5027554;28;20034;-68
2024/01/26 02:46:59;;;;;;;53.72;33.35;;;9.50;99.90;;;;;;5010689;28;20044;-67
2024/01/26 02:49:24;;;;;;;56.60;32.03;;;9.50;99.90;;;;;;5010403;28;20029;-67
2024/01/26 02:51:50;;;;;;;54.13;32.83;;;9.40;99.90;;;;;;5027974;28;20034;-67
2024/01/26 02:54:15;;;;;;;55.73;33.10;;;9.50;99.90;;;;;;5010121;28;20120;-69
2024/01/26 02:56:41;;;;;;;53.03;32.87;;;9.50;99.90;;;;;;5027603;28;20045;-67
2024/01/26 02:59:06;;;;;;;55.00;33.83;;;9.50;99.90;;;;;;5028061;28;20033;-68
2024/01/26 03:01:32;;;;;;;51.00;32.10;;;9.50;99.90;;;;;;5028785;28;20489;-67
2024/01/26 03:03:59;;;;;;;50.77;32.40;;;9.50;99.90;;;;;;5028801;28;20787;-67
2024/01/26 03:06:24;;;;;;;51.63;33.00;;;9.50;99.90;;;;;;5025293;28;20041;-68
2024/01/26 03:08:50;;;;;;;50.53;32.65;;;9.50;99.90;;;;;;5027786;28;20117;-68
2024/01/26 03:11:16;;;;;;;48.07;29.77;;;9.60;99.90;;;;;;5009789;28;20045;-67
2024/01/26 03:13:42;;;;;;;50.30;32.37;;;9.60;99.90;;;;;;5027215;28;20099;-67
2024/01/26 03:16:07;;;;;;;49.28;31.85;;;9.60;99.90;;;;;;5027020;28;20330;-67
2024/01/26 03:18:33;;;;;;;51.88;30.38;;;9.60;99.90;;;;;;5014535;28;20040;-67
2024/01/26 03:21:00;;;;;;;49.38;31.45;;;9.60;99.90;;;;;;5038320;28;20120;-68
2024/01/26 03:23:25;;;;;;;45.40;30.10;;;9.60;99.90;;;;;;5028070;28;20398;-68
2024/01/26 03:25:51;;;;;;;49.30;32.43;;;9.60;99.90;;;;;;5009248;28;21174;-68
2024/01/26 03:28:16;;;;;;;49.57;32.40;;;9.60;99.90;;;;;;5028069;28;20025;-67
2024/01/26 03:30:43;;;;;;;50.43;31.33;;;9.60;99.90;;;;;;5027428;28;20276;-67
2024/01/26 03:33:09;;;;;;;48.00;30.83;;;9.60;99.90;;;;;;5027148;28;20029;-67
2024/01/26 03:35:35;;;;;;;46.35;31.27;;;9.70;99.90;;;;;;5022105;28;20083;-68
2024/01/26 03:38:01;;;;;;;47.30;31.48;;;9.60;99.90;;;;;;5010403;28;20049;-68
2024/01/26 03:40:27;;;;;;;46.42;32.05;;;9.70;99.90;;;;;;5026846;28;20486;-66
2024/01/26 03:42:53;;;;;;;44.80;30.00;;;9.70;99.90;;;;;;5008634;28;20123;-68
2024/01/26 03:45:19;;;;;;;46.75;29.08;;;9.70;99.90;;;;;;5026095;28;20038;-68
2024/01/26 03:47:44;;;;;;;43.53;29.53;;;9.70;99.90;;;;;;5026777;28;20029;-68
2024/01/26 03:50:10;;;;;;;42.70;28.00;;;9.70;99.90;;;;;;5030062;28;20279;-68
2024/01/26 03:52:36;;;;;;;45.33;30.10;;;9.70;99.90;;;;;;5030065;28;20535;-67
2024/01/26 03:55:02;;;;;;;41.55;29.15;;;9.70;99.90;;;;;;5015107;28;20280;-67
2024/01/26 03:57:27;;;;;;;38.95;27.95;;;9.70;99.90;;;;;;5032237;28;20168;-66
2024/01/26 03:59:53;;;;;;;42.73;28.10;;;9.70;99.90;;;;;;5031187;28;20107;-68
2024/01/26 04:02:18;;;;;;;43.10;28.67;;;9.70;99.90;;;;;;5014518;28;20363;-66
2024/01/26 04:04:45;;;;;;;45.97;29.30;;;9.80;99.90;;;;;;5031207;28;20041;-66
2024/01/26 04:07:11;;;;;;;;;;;9.70;99.90;;;;;;5031065;28;20033;-65
2024/01/26 04:09:37;;;;;;;41.53;28.20;;;9.70;99.90;;;;;;5031278;28;20262;-66
2024/01/26 04:12:03;;;;;;;41.28;27.42;;;9.80;99.90;;;;;;5014444;28;21206;-68
2024/01/26 04:14:29;;;;;;;42.13;27.65;;;9.70;99.90;;;;;;5030654;28;20291;-67
2024/01/26 04:16:54;;;;;;;38.80;26.77;;;9.70;99.90;;;;;;5030096;28;20394;-65
2024/01/26 04:19:20;;;;;;;43.03;27.93;;;9.80;99.90;;;;;;5030382;28;20068;-65
2024/01/26 04:21:46;;;;;;;38.55;26.23;;;9.80;99.90;;;;;;5029788;28;20415;-66
2024/01/26 04:24:11;;;;;;;37.33;26.13;;;9.80;99.90;;;;;;5031599;28;20049;-65
2024/01/26 04:26:37;;;;;;;36.05;25.63;;;9.80;99.90;;;;;;5029650;28;20589;-65
2024/01/26 04:29:03;;;;;;;39.95;26.92;;;9.80;99.90;;;;;;5030172;28;20025;-66
2024/01/26 04:31:28;;;;;;;42.60;26.33;;;9.80;99.90;;;;;;5029991;28;20029;-66
2024/01/26 04:33:54;;;;;;;39.60;27.27;;;9.80;99.90;;;;;;5029734;28;20095;-67
2024/01/26 04:36:20;;;;;;;42.65;27.50;;;9.80;99.90;;;;;;5029130;28;20072;-66
2024/01/26 04:38:46;;;;;;;42.88;28.73;;;9.90;99.90;;;;;;5013262;28;20073;-65
2024/01/26 04:41:11;;;;;;;50.63;28.73;;;9.90;99.90;;;;;;5030231;28;20120;-66
2024/01/26 04:43:37;;;;;;;45.80;28.83;;;9.90;99.90;;;;;;5029659;28;20357;-66
2024/01/26 04:46:03;;;;;;;37.93;27.43;;;9.90;99.90;;;;;;5012555;28;20037;-66
2024/01/26 04:48:29;;;;;;;41.00;28.95;;;10.00;99.90;;;;;;5031236;28;20272;-67
2024/01/26 04:50:55;;;;;;;39.35;28.48;;;10.00;99.90;;;;;;5031123;28;20049;-66
2024/01/26 04:53:20;;;;;;;45.88;29.23;;;10.00;99.90;;;;;;5029857;28;20030;-66
2024/01/26 04:55:46;;;;;;;40.50;28.05;;;10.00;99.90;;;;;;5029375;28;20485;-67
2024/01/26 04:58:11;;;;;;;43.73;30.57;;;10.00;99.90;;;;;;5012162;28;20167;-67
2024/01/26 05:00:37;;;;;;;39.73;28.20;;;10.00;99.90;;;;;;5028738;28;20269;-66
2024/01/26 05:03:03;;;;;;;38.15;28.30;;;10.00;99.90;;;;;;5028969;28;20048;-66
2024/01/26 05:05:29;;;;;;;46.67;27.73;;;10.00;99.90;;;;;;5028714;28;20045;-67
2024/01/26 05:07:54;;;;;;;39.77;27.00;;;10.00;99.90;;;;;;5029915;28;20034;-67
2024/01/26 05:10:20;;;;;;;36.20;26.80;;;10.10;99.90;;;;;;5029850;28;20280;-68
2024/01/26 05:12:46;;;;;;;43.22;25.63;;;10.10;99.90;;;;;;5029812;28;20279;-66
2024/01/26 05:15:11;;;;;;;36.70;23.73;;;10.10;99.90;;;;;;5027133;28;20453;-66
2024/01/26 05:17:38;;;;;;;34.15;24.08;;;10.10;99.90;;;;;;5010162;28;20136;-68
2024/01/26 05:20:08;;;;;;;;;;;10.10;99.90;;;;;;5028314;28;20041;-67
2024/01/26 05:22:34;;;;;;;30.52;22.85;;;10.10;99.90;;;;;;5028399;28;19924;-70
2024/01/26 05:25:00;;;;;;;32.80;22.42;;;10.20;99.90;;;;;;5009821;28;20042;-66
2024/01/26 05:27:26;;;;;;;29.67;22.50;;;10.20;99.90;;;;;;5027742;28;20065;-68
2024/01/26 05:29:51;;;;;;;28.10;21.90;;;10.20;99.90;;;;;;5029249;28;20044;-67
2024/01/26 05:32:19;;;;;;;35.75;22.92;;;10.20;99.90;;;;;;5029739;28;20056;-68
2024/01/26 05:34:45;;;;;;;27.63;21.15;;;10.20;99.90;;;;;;5027488;28;20098;-67
2024/01/26 05:37:10;;;;;;;32.60;20.23;;;10.30;99.90;;;;;;5027710;28;20497;-69
2024/01/26 05:39:36;;;;;;;30.55;22.30;;;10.20;99.90;;;;;;5009931;28;20043;-66
2024/01/26 05:42:02;;;;;;;28.80;20.60;;;10.20;99.90;;;;;;5028604;28;20038;-67
2024/01/26 05:44:27;;;;;;;27.30;21.23;;;10.20;99.90;;;;;;5024305;28;20045;-70
2024/01/26 05:46:53;;;;;;;33.13;22.07;;;10.30;99.90;;;;;;5025965;28;20128;-67
2024/01/26 05:49:19;;;;;;;27.63;19.33;;;10.30;99.90;;;;;;5029692;28;20065;-68
2024/01/26 05:51:44;;;;;;;24.77;19.10;;;10.30;99.90;;;;;;5010074;28;20516;-67
2024/01/26 05:54:11;;;;;;;24.77;18.67;;;10.30;99.90;;;;;;5028369;28;20462;-67
2024/01/26 05:56:43;;;;;;;26.17;18.40;;;10.30;99.90;;;;;;5009634;28;20047;-69
2024/01/26 05:59:08;;;;;;;30.73;19.02;;;10.40;99.90;;;;;;5028090;28;20041;-67
2024/01/26 06:01:35;;;;;;;27.38;19.67;;;10.40;99.90;;;;;;5026790;28;20111;-66
2024/01/26 06:04:01;;;;;;;28.17;17.45;;;10.40;99.90;;;;;;5009943;28;20115;-67
2024/01/26 06:06:27;;;;;;;25.60;17.48;;;10.40;99.90;;;;;;5027282;28;20092;-66
2024/01/26 06:08:52;;;;;;;20.17;16.77;;;10.40;99.90;;;;;;5010589;28;20041;-66
2024/01/26 06:11:18;;;;;;;23.80;17.08;;;10.40;99.90;;;;;;4989785;28;1092852;-67
2024/01/26 06:13:44;;;;;;;21.50;15.98;;;10.50;99.90;;;;;;5027668;28;20045;-66
2024/01/26 06:16:14;;;;;;;22.05;15.82;;;10.50;99.90;;;;;;5027366;28;20060;-67
2024/01/26 06:18:40;;;;;;;27.50;15.98;;;10.50;99.90;;;;;;5029160;28;20046;-69
2024/01/26 06:21:05;;;;;;;22.35;15.40;;;10.50;99.90;;;;;;5028038;28;20045;-68
2024/01/26 06:23:31;;;;;;;27.63;15.73;;;10.50;99.90;;;;;;5027680;28;20140;-67
2024/01/26 06:25:57;;;;;;;21.13;15.37;;;10.50;99.90;;;;;;5027331;28;20260;-66
2024/01/26 06:28:22;;;;;;;17.60;13.93;;;10.50;99.90;;;;;;5028020;28;20280;-66
2024/01/26 06:30:48;;;;;;;20.13;15.07;;;10.50;99.90;;;;;;5027866;28;20053;-67
2024/01/26 06:33:14;;;;;;;18.02;14.65;;;10.60;99.90;;;;;;5028544;28;20116;-66
2024/01/26 06:35:40;;;;;;;18.23;15.07;;;10.50;99.90;;;;;;5027344;28;20034;-67
2024/01/26 06:38:05;;;;;;;20.05;15.07;;;10.50;99.90;;;;;;5028450;28;20375;-67
2024/01/26 06:40:31;;;;;;;16.70;13.37;;;10.50;99.90;;;;;;5028994;28;20592;-66
2024/01/26 06:42:56;;;;;;;18.93;13.27;;;10.50;99.90;;;;;;5029513;28;20329;-67
2024/01/26 06:45:22;;;;;;;17.52;13.65;;;10.50;99.90;;;;;;5032499;28;20342;-67
2024/01/26 06:47:48;;;;;;;19.50;13.93;;;10.50;99.90;;;;;;5027886;28;20052;-66
2024/01/26 06:50:13;;;;;;;19.17;13.70;;;10.50;99.90;;;;;;5028985;28;20636;-65
2024/01/26 06:52:39;;;;;;;14.95;12.95;;;10.50;99.90;;;;;;5027253;28;20033;-66
2024/01/26 06:55:05;;;;;;;13.75;12.35;;;10.50;99.90;;;;;;5027063;28;20044;-66
2024/01/26 06:57:30;;;;;;;18.10;13.55;;;10.50;99.90;;;;;;5009712;28;20493;-66
2024/01/26 06:59:56;;;;;;;18.13;12.60;;;10.50;99.90;;;;;;5027565;28;20040;-69
2024/01/26 07:02:21;;;;;;;16.03;12.97;;;10.50;99.90;;;;;;5009630;28;20041;-67
2024/01/26 07:04:47;;;;;;;14.73;13.13;;;10.40;99.90;;;;;;4992604;28;20312;-66
2024/01/26 07:07:13;;;;;;;14.70;13.05;;;10.40;99.90;;;;;;5028018;28;20042;-67
2024/01/26 07:09:38;;;;;;;14.60;12.88;;;10.40;99.90;;;;;;5011869;28;20030;-68
2024/01/26 07:12:04;;;;;;;16.23;13.13;;;10.40;99.90;;;;;;5008661;28;20156;-67
2024/01/26 07:14:30;;;;;;;16.35;12.77;;;10.40;99.90;;;;;;5028015;28;20124;-66
2024/01/26 07:16:56;;;;;;;13.60;12.15;;;10.50;99.90;;;;;;5009483;28;20524;-66
2024/01/26 07:19:21;;;;;;;16.60;13.25;;;10.40;99.90;;;;;;5027471;28;20033;-67
2024/01/26 07:21:47;;;;;;;15.52;12.68;;;10.50;99.90;;;;;;5026230;28;20041;-67
2024/01/26 07:24:13;;;;;;;15.32;12.20;;;10.50;99.90;;;;;;5026586;28;20124;-68
2024/01/26 07:26:39;;;;;;;15.80;12.60;;;10.40;99.90;;;;;;5011265;28;20036;-68
2024/01/26 07:29:04;;;;;;;17.77;12.33;;;10.40;99.90;;;;;;5027945;28;20434;-67
2024/01/26 07:31:30;;;;;;;18.27;12.53;;;10.40;99.90;;;;;;5013001;28;20361;-66
2024/01/26 07:33:55;;;;;;;17.90;13.10;;;10.40;99.90;;;;;;5013043;28;20596;-66
2024/01/26 07:36:21;;;;;;;20.05;13.43;;;10.40;99.90;;;;;;5012837;28;20061;-67
2024/01/26 07:38:47;;;;;;;17.92;12.20;;;10.40;99.90;;;;;;5030956;28;20041;-67
2024/01/26 07:41:13;;;;;;;18.23;13.10;;;10.40;99.90;;;;;;5030828;28;20076;-67
2024/01/26 07:43:38;;;;;;;14.85;11.93;;;10.40;99.90;;;;;;5029764;28;20073;-67
2024/01/26 07:46:04;;;;;;;13.55;11.15;;;10.40;99.90;;;;;;5040313;28;20037;-66
2024/01/26 07:48:30;;;;;;;15.23;12.60;;;10.40;99.90;;;;;;5030011;28;20413;-67
2024/01/26 07:50:56;;;;;;;14.98;11.75;;;10.40;99.90;;;;;;5039651;28;20853;-66
2024/01/26 07:53:21;;;;;;;14.02;12.40;;;10.40;99.90;;;;;;5029459;28;20037;-67
2024/01/26 07:55:47;;;;;;;13.52;12.13;;;10.40;99.90;;;;;;5030264;28;20045;-66
2024/01/26 07:58:13;;;;;;;13.40;12.02;;;10.40;99.90;;;;;;5029647;28;20183;-67
2024/01/26 08:00:38;;;;;;;15.90;11.47;;;10.40;99.90;;;;;;5014838;28;20049;-68
2024/01/26 08:03:04;;;;;;;13.52;11.73;;;10.40;99.90;;;;;;5029090;28;20047;-66
2024/01/26 08:05:30;;;;;;;13.90;11.50;;;10.40;99.90;;;;;;5029268;28;20076;-66
2024/01/26 08:07:55;;;;;;;14.10;11.57;;;10.40;99.90;;;;;;5043956;28;20099;-66
2024/01/26 08:10:21;;;;;;;14.47;11.57;;;10.40;99.90;;;;;;5028925;28;20330;-68
2024/01/26 08:12:46;;;;;;;17.13;12.23;;;10.40;99.90;;;;;;5028244;28;20494;-66
2024/01/26 08:15:12;;;;;;;14.03;11.23;;;10.40;99.90;;;;;;5029779;28;20295;-66
2024/01/26 08:17:38;;;;;;;13.93;10.75;;;10.40;99.90;;;;;;5012559;28;20383;-66
2024/01/26 08:20:05;;;;;;;13.68;11.82;;;10.40;99.90;;;;;;5030432;28;20045;-67
2024/01/26 08:22:31;;;;;;;14.70;11.63;;;10.40;99.90;;;;;;5029823;28;20536;-66
2024/01/26 08:25:00;;;;;;;12.85;10.90;;;10.40;99.90;;;;;;5029542;28;20316;-66
2024/01/26 08:27:26;;;;;;;12.88;10.60;;;10.40;99.90;;;;;;5028985;28;20505;-67
2024/01/26 08:29:53;;;;;;;11.20;10.00;;;10.40;99.90;;;;;;5029871;28;20045;-68
2024/01/26 08:32:18;;;;;;;10.02;9.00;;;10.40;99.90;;;;;;5011122;28;20029;-69
2024/01/26 08:34:44;;;;;;;9.35;8.45;;;10.40;99.90;;;;;;5012243;28;20049;-67
2024/01/26 08:37:11;;;;;;;13.20;10.43;;;10.40;99.90;;;;;;5030043;28;20073;-66
2024/01/26 08:39:36;;;;;;;10.25;9.02;;;10.50;99.90;;;;;;5030418;28;20128;-68
2024/01/26 08:42:02;;;;;;;9.77;8.77;;;10.50;99.90;;;;;;5012644;28;20476;-67
2024/01/26 08:44:30;;;;;;;9.40;7.80;;;10.50;99.90;;;;;;5030854;28;20563;-67
2024/01/26 08:46:56;;;;;;;11.90;7.25;;;10.60;99.90;;;;;;5013455;28;20124;-68
2024/01/26 08:49:22;;;;;;;7.18;6.50;;;10.60;99.90;;;;;;5026885;28;20456;-67
2024/01/26 08:51:47;;;;;;;7.13;6.38;;;10.60;99.90;;;;;;5029574;28;20137;-66
2024/01/26 08:54:13;;;;;;;8.20;6.80;;;10.60;99.90;;;;;;5010590;28;20083;-67
2024/01/26 08:56:42;;;;;;;11.80;6.85;;;10.70;99.90;;;;;;5029336;28;20041;-67
2024/01/26 08:59:09;;;;;;;7.85;5.38;;;10.70;99.90;;;;;;4998205;28;20041;-67
2024/01/26 09:01:35;;;;;;;6.65;5.85;;;10.70;99.90;;;;;;5030668;28;20037;-66
2024/01/26 09:04:02;;;;;;;6.97;6.05;;;10.70;99.90;;;;;;5011823;28;20061;-65
2024/01/26 09:06:28;;;;;;;7.00;6.40;;;10.80;99.90;;;;;;5029560;28;20033;-66
2024/01/26 09:08:54;;;;;;;8.10;6.97;;;10.80;99.90;;;;;;5011561;28;20064;-66
2024/01/26 09:11:19;;;;;;;8.63;6.73;;;10.80;99.90;;;;;;5030958;28;20510;-65
2024/01/26 09:13:45;;;;;;;8.57;7.22;;;10.80;99.90;;;;;;5030216;28;20039;-65
2024/01/26 09:16:11;;;;;;;7.87;7.07;;;10.90;99.90;;;;;;5035236;28;20498;-65
2024/01/26 09:18:37;;;;;;;;;;;10.90;99.90;;;;;;5032372;28;20041;-65
2024/01/26 09:21:03;;;;;;;8.30;7.07;;;10.90;99.90;;;;;;5031105;28;19940;-63
2024/01/26 09:23:28;;;;;;;10.23;8.20;;;10.90;99.90;;;;;;5030071;28;20037;-62
2024/01/26 09:25:54;;;;;;;9.27;7.95;;;10.90;99.90;;;;;;5010119;28;20648;-62
2024/01/26 09:28:19;;;;;;;8.87;7.93;;;10.90;99.90;;;;;;5029924;28;20033;-60
2024/01/26 09:30:45;;;;;;;9.00;6.90;;;10.90;99.90;;;;;;5030169;28;20283;-62
2024/01/26 09:33:11;;;;;;;8.52;7.18;;;10.90;99.90;;;;;;5029411;28;20037;-62
2024/01/26 09:35:36;;;;;;;8.43;7.50;;;11.00;99.90;;;;;;5030142;28;20033;-62
2024/01/26 09:38:02;;;;;;;9.38;7.25;;;11.00;99.90;;;;;;5010809;28;20041;-60
2024/01/26 09:40:28;;;;;;;10.00;6.88;;;11.00;99.90;;;;;;5026884;28;20112;-60
2024/01/26 09:42:54;;;;;;;13.77;8.63;;;11.00;99.90;;;;;;5026686;28;20037;-63
2024/01/26 09:45:22;;;;;;;10.13;6.60;;;11.00;99.90;;;;;;5027282;28;20037;-62
2024/01/26 09:47:52;;;;;;;12.20;8.48;;;11.10;99.90;;;;;;5028663;28;20045;-62
2024/01/26 09:50:19;;;;;;;1.27;0.40;;;11.10;99.90;;;;;;5029805;28;20108;-62
2024/01/26 09:52:45;;;;;;;2.75;0.30;;;10.70;99.90;;;;;;5030868;28;20124;-62
2024/01/26 09:55:12;;;;;;;0.88;0.40;;;10.20;99.90;;;;;;5029081;28;20599;-62
2024/01/26 09:57:38;;;;;;;1.25;0.20;;;9.90;99.90;;;;;;5028566;28;20087;-62
2024/01/26 10:00:07;;;;;;;1.48;0.15;;;9.70;99.90;;;;;;5029947;28;20038;-62
2024/01/26 10:02:32;;;;;;;0.45;0.20;;;9.60;99.90;;;;;;5030344;28;20091;-61
2024/01/26 10:04:58;;;;;;;1.03;0.20;;;9.50;99.90;;;;;;5026545;28;20042;-63
2024/01/26 10:07:23;;;;;;;2.40;0.20;;;9.50;99.90;;;;;;5028441;28;20036;-64
2024/01/26 10:09:49;;;;;;;2.53;0.20;;;9.50;99.90;;;;;;5027920;28;20506;-64
2024/01/26 10:12:15;;;;;;;1.00;0.20;;;9.50;99.90;;;;;;5030393;28;20121;-63
2024/01/26 10:14:41;;;;;;;4.10;0.30;;;9.50;99.90;;;;;;5010076;28;20041;-62
2024/01/26 10:17:06;;;;;;;0.75;0.20;;;9.40;99.90;;;;;;5029450;28;20042;-61
2024/01/26 10:19:34;;;;;;;3.23;0.40;;;9.40;99.90;;;;;;5025987;28;20033;-64
2024/01/26 10:22:00;;;;;;;4.65;0.47;;;9.30;99.90;;;;;;5028417;28;20045;-63
2024/01/26 10:24:27;;;;;;;3.58;0.20;;;9.30;99.90;;;;;;5031015;28;20107;-64
2024/01/26 10:26:53;;;;;;;;;;;9.20;99.90;;;;;;5029097;28;20598;-64
2024/01/26 10:29:19;;;;;;;2.35;0.32;;;9.20;99.90;;;;;;5030127;28;19924;-64
2024/01/26 10:31:46;;;;;;;1.55;0.20;;;9.10;99.90;;;;;;5028793;28;20478;-62
2024/01/26 10:34:16;;;;;;;5.18;1.20;;;9.20;99.90;;;;;;5029401;28;20041;-63
2024/01/26 10:36:44;;;;;;;9.10;0.40;;;9.10;99.90;;;;;;5027883;28;20053;-62
2024/01/26 10:39:24;;;;;;;3.63;0.55;;;9.10;99.90;;;;;;5008177;28;20084;-62
2024/01/26 10:41:54;;;;;;;8.55;0.82;;;9.10;99.90;;;;;;5031541;28;20121;-62
2024/01/26 10:44:20;;;;;;;12.57;1.40;;;9.00;99.90;;;;;;5010547;28;20060;-62
2024/01/26 10:46:47;;;;;;;8.68;0.88;;;9.10;99.90;;;;;;5027423;28;20037;-62
2024/01/26 10:49:13;;;;;;;12.18;0.73;;;9.00;99.90;;;;;;5026401;28;20405;-62
2024/01/26 10:51:42;;;;;;;8.27;1.00;;;9.00;99.90;;;;;;5007401;28;20049;-62
2024/01/26 10:54:12;;;;;;;12.60;1.73;;;9.00;99.90;;;;;;5029493;28;20315;-62
2024/01/26 10:56:39;;;;;;;14.63;1.88;;;9.00;99.90;;;;;;5027917;28;20033;-62
2024/01/26 10:59:07;;;;;;;17.95;1.80;;;9.10;99.90;;;;;;5028842;28;20038;-62
2024/01/26 11:01:34;;;;;;;8.40;1.45;;;9.10;99.90;;;;;;5028107;28;20037;-62
2024/01/26 11:04:00;;;;;;;9.60;1.58;;;9.10;99.90;;;;;;5031731;28;20037;-62
2024/01/26 11:06:31;;;;;;;14.57;2.58;;;9.10;99.90;;;;;;5029261;28;20114;-62
2024/01/26 11:09:03;;;;;;;15.23;1.73;;;9.10;99.90;;;;;;5029230;28;20033;-62
2024/01/26 11:11:33;;;;;;;18.50;2.22;;;9.10;99.90;;;;;;5027480;28;20038;-63
2024/01/26 11:14:02;;;;;;;9.65;1.75;;;9.00;99.90;;;;;;5030954;28;20115;-62
2024/01/26 11:16:32;;;;;;;16.42;1.80;;;9.00;99.90;;;;;;5031814;28;20048;-61
2024/01/26 11:18:58;;;;;;;22.08;2.30;;;9.00;99.90;;;;;;5010867;28;20141;-66
2024/01/26 11:21:24;;;;;;;10.80;2.50;;;9.00;99.90;;;;;;5028798;28;20120;-66
2024/01/26 11:23:50;;;;;;;10.85;2.00;;;9.00;99.90;;;;;;5028529;28;20048;-68
2024/01/26 11:26:17;;;;;;;14.45;1.88;;;9.00;99.90;;;;;;5028282;28;20033;-67
2024/01/26 11:28:45;;;;;;;14.95;2.25;;;9.00;99.90;;;;;;5027541;28;20100;-66
2024/01/26 11:31:12;;;;;;;12.80;2.35;;;9.00;99.90;;;;;;5028758;28;20072;-69
2024/01/26 11:33:39;;;;;;;21.48;2.65;;;9.00;99.90;;;;;;5028428;28;20049;-66
2024/01/26 11:36:08;;;;;;;10.32;1.80;;;9.00;99.90;;;;;;5030096;28;20147;-66
2024/01/26 11:38:34;;;;;;;19.35;2.30;;;8.90;99.90;;;;;;5028225;28;20037;-66
2024/01/26 11:41:01;;;;;;;14.00;2.17;;;8.80;99.90;;;;;;5011176;28;20090;-67
2024/01/26 11:43:28;;;;;;;20.77;2.53;;;8.80;99.90;;;;;;5028443;28;20564;-66
2024/01/26 11:45:55;;;;;;;15.98;1.70;;;8.80;99.90;;;;;;5012916;28;20041;-67
2024/01/26 11:48:21;;;;;;;16.40;2.70;;;8.70;99.90;;;;;;5027812;28;20048;-67
2024/01/26 11:50:48;;;;;;;14.70;2.20;;;8.70;99.90;;;;;;5008801;28;20037;-67
2024/01/26 11:53:15;;;;;;;10.73;2.08;;;8.60;99.90;;;;;;5039589;28;20064;-67
2024/01/26 11:55:45;;;;;;;16.80;2.88;;;8.60;99.90;;;;;;5037660;28;20049;-67
2024/01/26 11:58:11;;;;;;;18.55;2.17;;;8.60;99.90;;;;;;5024876;28;20098;-67
2024/01/26 12:00:37;;;;;;;21.20;2.08;;;8.60;99.90;;;;;;4995257;28;20557;-68
2024/01/26 12:03:08;;;;;;;18.42;3.33;;;8.60;99.90;;;;;;5010297;28;20414;-67
2024/01/26 12:05:35;;;;;;;16.73;1.95;;;8.60;99.90;;;;;;5027890;28;20505;-68
2024/01/26 12:08:04;;;;;;;12.65;2.08;;;8.60;99.90;;;;;;5028453;28;20513;-68
2024/01/26 12:10:31;;;;;;;10.52;1.50;;;8.50;99.90;;;;;;5011969;28;20052;-68
2024/01/26 12:12:57;;;;;;;;;;;8.50;99.90;;;;;;5032073;28;20041;-68
2024/01/26 12:15:27;;;;;;;14.32;2.03;;;8.50;99.90;;;;;;5031827;28;19917;-68
2024/01/26 12:17:53;;;;;;;17.08;2.60;;;8.50;99.90;;;;;;5014074;28;20493;-68
2024/01/26 12:20:19;;;;;;;15.27;2.05;;;8.50;99.90;;;;;;5032266;28;20087;-71
2024/01/26 12:22:45;;;;;;;18.48;2.50;;;8.50;99.90;;;;;;5013492;28;20041;-71
2024/01/26 12:25:13;;;;;;;15.02;1.85;;;8.50;99.90;;;;;;5013868;28;20624;-71
2024/01/26 12:27:41;;;;;;;15.60;1.85;;;8.40;99.90;;;;;;5013915;28;20046;-71
2024/01/26 12:30:09;;;;;;;16.95;3.42;;;8.40;99.90;;;;;;5031988;28;20379;-71
2024/01/26 12:32:37;;;;;;;20.33;2.63;;;8.40;99.90;;;;;;5013926;28;20037;-71